Time;durP1;ratioP1;P1;durP2;ratioP2;P2;SDS_P1;SDS_P2;PMS_P1;PMS_P2;Temp;Humidity;BMP_temperature;BMP_pressure;BME280_temperature;BME280_humidity;BME280_pressure;Samples;Min_cycle;Max_cycle;Signal;HPM_P1;HPM_P2
2023/08/26 00:00:07;;;;;;;45.27;42.07;;;21.00;99.90;;;;;;4932848;29;20851;-69
2023/08/26 00:02:34;;;;;;;45.63;42.43;;;20.90;99.90;;;;;;4932809;29;20780;-70
2023/08/26 00:05:01;;;;;;;44.87;41.97;;;20.90;99.90;;;;;;4932997;29;20453;-71
2023/08/26 00:07:28;;;;;;;44.80;41.83;;;20.90;99.90;;;;;;4932840;29;20525;-70
2023/08/26 00:09:54;;;;;;;43.67;40.87;;;20.90;99.90;;;;;;4932784;29;20967;-70
2023/08/26 00:12:21;;;;;;;44.70;41.60;;;20.90;99.90;;;;;;4932339;29;21171;-70
2023/08/26 00:14:49;;;;;;;43.13;40.33;;;20.90;99.90;;;;;;4932528;29;20535;-68
2023/08/26 00:17:16;;;;;;;44.53;41.10;;;20.90;99.90;;;;;;4932482;29;20557;-68
2023/08/26 00:19:44;;;;;;;42.73;39.90;;;20.90;99.90;;;;;;4932734;29;20959;-70
2023/08/26 00:22:11;;;;;;;42.20;39.27;;;20.90;99.90;;;;;;4932756;29;20460;-70
2023/08/26 00:24:38;;;;;;;42.77;39.90;;;20.80;99.90;;;;;;4932498;29;20457;-70
2023/08/26 00:27:05;;;;;;;41.00;38.40;;;20.80;99.90;;;;;;4932454;29;20828;-71
2023/08/26 00:29:32;;;;;;;41.63;38.80;;;20.80;99.90;;;;;;4932635;29;20453;-71
2023/08/26 00:32:00;;;;;;;41.23;38.57;;;20.70;99.90;;;;;;4932583;29;20473;-69
2023/08/26 00:34:26;;;;;;;37.77;35.57;;;20.70;99.90;;;;;;4932319;29;20924;-71
2023/08/26 00:36:53;;;;;;;43.13;40.50;;;20.70;99.90;;;;;;4932701;29;20441;-72
2023/08/26 00:39:20;;;;;;;41.37;38.57;;;20.70;99.90;;;;;;4932431;29;20454;-69
2023/08/26 00:41:47;;;;;;;43.33;40.40;;;20.70;99.90;;;;;;4932463;29;20564;-68
2023/08/26 00:44:14;;;;;;;42.47;39.57;;;20.70;99.90;;;;;;4932226;29;20487;-68
2023/08/26 00:46:41;;;;;;;41.43;38.90;;;20.70;99.90;;;;;;4932118;29;20493;-70
2023/08/26 00:49:09;;;;;;;40.40;37.83;;;20.60;99.90;;;;;;4932196;29;20453;-71
2023/08/26 00:51:36;;;;;;;40.93;38.43;;;20.50;99.90;;;;;;4932108;29;20450;-71
2023/08/26 00:54:04;;;;;;;43.40;40.60;;;20.50;99.90;;;;;;4932194;29;20876;-71
2023/08/26 00:56:31;;;;;;;43.63;40.97;;;20.50;99.90;;;;;;4932226;29;20445;-69
2023/08/26 00:58:58;;;;;;;43.90;41.20;;;20.50;99.90;;;;;;4932258;29;20824;-70
2023/08/26 01:01:27;;;;;;;44.20;41.40;;;20.50;99.90;;;;;;4932127;29;20453;-70
2023/08/26 01:03:54;;;;;;;45.37;42.17;;;20.60;99.90;;;;;;4932181;29;20449;-69
2023/08/26 01:06:22;;;;;;;42.73;39.90;;;20.70;99.90;;;;;;4932011;29;20828;-70
2023/08/26 01:08:49;;;;;;;41.83;39.03;;;20.70;99.90;;;;;;4931967;29;20468;-69
2023/08/26 01:11:23;;;;;;;45.13;41.13;;;20.80;99.90;;;;;;4932064;29;20522;-73
2023/08/26 01:14:09;;;;;;;43.60;40.90;;;20.80;99.90;;;;;;4931912;29;20453;-71
2023/08/26 01:16:38;;;;;;;36.37;34.37;;;20.70;99.90;;;;;;4931773;29;20480;-71
2023/08/26 01:19:08;;;;;;;36.77;34.57;;;20.60;99.90;;;;;;4931932;29;20486;-71
2023/08/26 01:21:37;;;;;;;35.53;33.43;;;20.50;99.90;;;;;;4932145;29;20805;-71
2023/08/26 01:24:07;;;;;;;36.97;34.93;;;20.40;99.90;;;;;;4933188;29;20461;-70
2023/08/26 01:26:34;;;;;;;38.57;36.37;;;20.40;99.90;;;;;;4935356;29;20972;-70
2023/08/26 01:29:00;;;;;;;37.40;34.80;;;20.40;99.90;;;;;;4935534;29;20472;-71
2023/08/26 01:31:31;;;;;;;34.63;32.53;;;20.40;99.90;;;;;;4935608;29;20481;-72
2023/08/26 01:34:03;;;;;;;34.10;32.20;;;20.40;99.90;;;;;;4935704;29;20831;-72
2023/08/26 01:36:34;;;;;;;33.60;31.60;;;20.30;99.90;;;;;;4935675;29;20472;-73
2023/08/26 01:39:01;;;;;;;32.90;30.90;;;20.30;99.90;;;;;;4935407;29;20848;-73
2023/08/26 01:41:30;;;;;;;30.67;28.77;;;20.30;99.90;;;;;;4935374;29;20823;-73
2023/08/26 01:43:58;;;;;;;32.20;30.20;;;20.20;99.90;;;;;;4927684;29;20470;-72
2023/08/26 01:46:35;;;;;;;32.40;30.50;;;20.20;99.90;;;;;;4924604;29;20516;-71
2023/08/26 01:49:02;;;;;;;31.73;29.80;;;20.20;99.90;;;;;;4926767;29;20489;-69
2023/08/26 01:51:29;;;;;;;32.70;30.90;;;20.20;99.90;;;;;;4920850;29;20468;-69
2023/08/26 01:53:54;;;;;;;32.83;31.03;;;20.20;99.90;;;;;;4924307;29;20531;-69
2023/08/26 01:56:21;;;;;;;34.83;32.70;;;20.10;99.90;;;;;;4924648;29;20478;-69
2023/08/26 01:58:49;;;;;;;33.47;31.63;;;20.10;99.90;;;;;;4926248;29;20217;-70
2023/08/26 02:01:16;;;;;;;32.70;31.00;;;20.10;99.90;;;;;;4920031;29;20457;-69
2023/08/26 02:03:42;;;;;;;34.87;32.90;;;20.10;99.90;;;;;;4925288;29;20956;-68
2023/08/26 02:06:09;;;;;;;34.57;32.60;;;20.10;99.90;;;;;;4926571;29;20458;-68
2023/08/26 02:08:36;;;;;;;36.00;33.80;;;20.10;99.90;;;;;;4924266;29;20543;-69
2023/08/26 02:11:02;;;;;;;34.60;32.70;;;20.10;99.90;;;;;;4926588;29;20488;-69
2023/08/26 02:13:29;;;;;;;34.37;32.37;;;20.20;99.90;;;;;;4920436;29;20469;-68
2023/08/26 02:15:58;;;;;;;33.73;31.63;;;20.20;99.90;;;;;;4921888;29;20587;-69
2023/08/26 02:18:25;;;;;;;33.70;31.73;;;20.10;99.90;;;;;;4915812;29;20565;-70
2023/08/26 02:20:51;;;;;;;33.63;31.73;;;20.10;99.90;;;;;;4915937;29;21239;-70
2023/08/26 02:23:18;;;;;;;34.67;32.57;;;20.10;99.90;;;;;;4915743;29;20828;-69
2023/08/26 02:25:45;;;;;;;36.17;33.77;;;20.10;99.90;;;;;;4915830;29;20446;-69
2023/08/26 02:28:11;;;;;;;36.00;33.70;;;20.10;99.90;;;;;;4915542;29;21066;-69
2023/08/26 02:30:38;;;;;;;35.60;33.47;;;20.20;99.90;;;;;;4915516;29;20895;-70
2023/08/26 02:33:08;;;;;;;36.60;34.23;;;20.20;99.90;;;;;;4915373;29;20486;-69
2023/08/26 02:35:36;;;;;;;36.47;34.27;;;20.20;99.90;;;;;;4914895;29;20466;-69
2023/08/26 02:38:03;;;;;;;37.60;35.27;;;20.20;99.90;;;;;;4915123;29;20933;-69
2023/08/26 02:40:30;;;;;;;36.90;34.60;;;20.10;99.90;;;;;;4915345;29;20462;-69
2023/08/26 02:42:56;;;;;;;35.67;33.57;;;20.10;99.90;;;;;;4925191;29;20454;-69
2023/08/26 02:45:23;;;;;;;36.70;34.40;;;20.10;99.90;;;;;;4934382;29;20453;-70
2023/08/26 02:47:50;;;;;;;35.03;33.00;;;20.10;99.90;;;;;;4934043;29;20523;-69
2023/08/26 02:50:18;;;;;;;35.93;33.73;;;20.10;99.90;;;;;;4934198;29;20493;-70
2023/08/26 02:52:45;;;;;;;37.27;34.87;;;20.20;99.90;;;;;;4934334;29;20465;-71
2023/08/26 02:55:11;;;;;;;35.90;33.70;;;20.20;99.90;;;;;;4934268;29;20862;-71
2023/08/26 02:57:39;;;;;;;35.60;33.23;;;20.20;99.90;;;;;;4934022;29;20476;-71
2023/08/26 03:00:07;;;;;;;35.90;33.70;;;20.20;99.90;;;;;;4933959;29;20452;-70
2023/08/26 03:02:34;;;;;;;35.37;33.27;;;20.10;99.90;;;;;;4933868;29;20445;-70
2023/08/26 03:05:01;;;;;;;34.90;32.77;;;20.10;99.90;;;;;;4934184;29;20446;-70
2023/08/26 03:07:29;;;;;;;34.83;32.83;;;20.10;99.90;;;;;;4934136;29;20489;-71
2023/08/26 03:09:55;;;;;;;36.27;33.90;;;20.10;99.90;;;;;;4934045;29;20523;-70
2023/08/26 03:12:22;;;;;;;35.73;33.60;;;20.20;99.90;;;;;;4933939;29;20445;-70
2023/08/26 03:14:52;;;;;;;35.73;33.63;;;20.20;99.90;;;;;;4933772;29;20467;-72
2023/08/26 03:17:18;;;;;;;34.70;32.50;;;20.10;99.90;;;;;;4933698;29;20480;-71
2023/08/26 03:19:45;;;;;;;35.70;33.50;;;20.20;99.90;;;;;;4933978;29;20457;-71
2023/08/26 03:22:12;;;;;;;35.33;33.17;;;20.10;99.90;;;;;;4933952;29;20457;-72
2023/08/26 03:24:40;;;;;;;35.83;33.60;;;20.20;99.90;;;;;;4933609;29;20468;-72
2023/08/26 03:27:07;;;;;;;36.07;33.93;;;20.10;99.90;;;;;;4933529;29;20486;-72
2023/08/26 03:29:33;;;;;;;34.33;32.33;;;20.10;99.90;;;;;;4934175;29;20826;-72
2023/08/26 03:32:00;;;;;;;34.83;32.83;;;20.10;99.90;;;;;;4934461;29;20477;-72
2023/08/26 03:34:27;;;;;;;34.83;32.73;;;20.20;99.90;;;;;;4934659;29;20454;-72
2023/08/26 03:36:53;;;;;;;33.90;31.70;;;20.20;99.90;;;;;;4934445;29;20449;-72
2023/08/26 03:39:20;;;;;;;34.53;31.80;;;20.20;99.90;;;;;;4934234;29;20449;-72
2023/08/26 03:41:48;;;;;;;33.07;31.07;;;20.20;99.90;;;;;;4934245;29;20943;-72
2023/08/26 03:44:15;;;;;;;33.77;31.80;;;20.10;99.90;;;;;;4934237;29;20824;-72
2023/08/26 03:46:42;;;;;;;33.80;31.60;;;20.10;99.90;;;;;;4933644;29;20456;-73
2023/08/26 03:49:08;;;;;;;32.83;30.73;;;20.00;99.90;;;;;;4934210;29;20453;-72
2023/08/26 03:51:36;;;;;;;31.70;29.90;;;20.00;99.90;;;;;;4934227;29;20457;-72
2023/08/26 03:54:03;;;;;;;31.60;29.70;;;20.00;99.90;;;;;;4934071;29;20450;-72
2023/08/26 03:56:29;;;;;;;31.30;29.40;;;19.90;99.90;;;;;;4934288;29;20469;-72
2023/08/26 03:58:58;;;;;;;31.20;29.20;;;19.90;99.90;;;;;;4934031;29;20473;-72
2023/08/26 04:01:25;;;;;;;30.90;29.10;;;19.90;99.90;;;;;;4928408;29;20561;-72
2023/08/26 04:03:52;;;;;;;30.00;28.23;;;19.80;99.90;;;;;;4919298;29;20445;-73
2023/08/26 04:06:19;;;;;;;31.10;28.90;;;19.80;99.90;;;;;;4925744;29;20458;-73
2023/08/26 04:08:46;;;;;;;30.60;28.83;;;19.80;99.90;;;;;;4914865;29;20486;-73
2023/08/26 04:11:15;;;;;;;31.70;29.37;;;19.90;99.90;;;;;;4914955;29;20976;-72
2023/08/26 04:13:41;;;;;;;31.90;29.90;;;19.80;99.90;;;;;;4914799;29;20461;-72
2023/08/26 04:16:09;;;;;;;31.73;29.83;;;19.90;99.90;;;;;;4914770;29;20446;-72
2023/08/26 04:18:36;;;;;;;31.57;29.47;;;20.00;99.90;;;;;;4914665;29;20478;-73
2023/08/26 04:21:03;;;;;;;32.07;30.10;;;20.00;99.90;;;;;;4914784;29;20457;-73
2023/08/26 04:23:30;;;;;;;34.07;31.67;;;20.00;99.90;;;;;;4914953;29;20446;-72
2023/08/26 04:25:59;;;;;;;31.80;29.80;;;20.00;99.90;;;;;;4914765;29;20455;-73
2023/08/26 04:28:26;;;;;;;31.13;29.07;;;20.10;99.90;;;;;;4914578;29;20537;-73
2023/08/26 04:30:52;;;;;;;33.27;31.17;;;20.10;99.90;;;;;;4914344;29;20482;-72
2023/08/26 04:33:21;;;;;;;31.93;30.03;;;20.20;99.90;;;;;;4914531;29;20964;-73
2023/08/26 04:35:47;;;;;;;32.73;30.60;;;20.20;99.90;;;;;;4914640;29;20461;-73
2023/08/26 04:38:14;;;;;;;31.87;29.90;;;20.10;99.90;;;;;;4914657;29;20450;-73
2023/08/26 04:40:42;;;;;;;33.67;31.37;;;20.20;99.90;;;;;;4914496;29;20453;-73
2023/08/26 04:43:10;;;;;;;33.40;31.20;;;20.20;99.90;;;;;;4914430;29;20953;-73
2023/08/26 04:45:37;;;;;;;33.10;31.10;;;20.20;99.90;;;;;;4914501;29;20461;-73
2023/08/26 04:48:04;;;;;;;32.87;30.87;;;20.20;99.90;;;;;;4914465;29;20494;-73
2023/08/26 04:50:32;;;;;;;32.87;30.77;;;20.20;99.90;;;;;;4914588;29;20461;-73
2023/08/26 04:52:59;;;;;;;32.33;30.33;;;20.30;99.90;;;;;;4914706;29;20454;-72
2023/08/26 04:55:26;;;;;;;32.00;30.10;;;20.30;99.90;;;;;;4920638;29;20473;-73
2023/08/26 04:57:53;;;;;;;32.13;30.23;;;20.30;99.90;;;;;;4924341;29;20454;-73
2023/08/26 05:00:20;;;;;;;32.87;30.97;;;20.30;99.90;;;;;;4925863;29;20516;-73
2023/08/26 05:02:45;;;;;;;33.87;31.70;;;20.40;99.90;;;;;;4921947;29;20462;-74
2023/08/26 05:05:12;;;;;;;31.20;29.50;;;20.40;99.90;;;;;;4928114;29;20806;-72
2023/08/26 05:07:40;;;;;;;31.30;29.40;;;20.50;99.90;;;;;;4924499;29;20734;-74
2023/08/26 05:10:08;;;;;;;31.00;29.00;;;20.50;99.90;;;;;;4926319;29;20458;-73
2023/08/26 05:12:34;;;;;;;29.80;28.10;;;20.50;99.90;;;;;;4925187;29;20454;-74
2023/08/26 05:15:02;;;;;;;29.90;28.20;;;20.40;99.90;;;;;;4923274;29;20460;-74
2023/08/26 05:17:29;;;;;;;27.50;26.00;;;20.40;99.90;;;;;;4928052;29;20478;-73
2023/08/26 05:19:55;;;;;;;28.57;27.07;;;20.40;99.90;;;;;;4926261;29;20524;-73
2023/08/26 05:22:22;;;;;;;28.90;27.30;;;20.30;99.90;;;;;;4920043;29;20458;-73
2023/08/26 05:24:50;;;;;;;28.37;26.40;;;20.20;99.90;;;;;;4926042;29;20465;-73
2023/08/26 05:27:17;;;;;;;26.07;24.60;;;20.20;99.90;;;;;;4923325;29;20461;-74
2023/08/26 05:29:46;;;;;;;25.77;24.20;;;20.20;99.90;;;;;;4926317;29;20458;-74
2023/08/26 05:32:12;;;;;;;24.37;22.87;;;20.30;99.90;;;;;;4926243;29;20529;-74
2023/08/26 05:34:39;;;;;;;22.20;20.93;;;20.40;99.90;;;;;;4928095;29;20479;-74
2023/08/26 05:37:06;;;;;;;21.30;20.10;;;20.50;99.90;;;;;;4928218;29;20656;-78
2023/08/26 05:39:32;;;;;;;22.17;21.07;;;20.60;99.90;;;;;;4925890;29;20461;-79
2023/08/26 05:42:00;;;;;;;21.70;20.50;;;20.70;99.90;;;;;;4925161;29;20469;-79
2023/08/26 05:44:27;;;;;;;22.17;20.97;;;20.70;99.90;;;;;;4927641;29;20480;-79
2023/08/26 05:46:55;;;;;;;20.50;19.50;;;20.70;99.90;;;;;;4928545;29;20460;-79
2023/08/26 05:49:22;;;;;;;21.83;20.67;;;20.70;99.90;;;;;;4929343;29;20521;-80
2023/08/26 05:51:48;;;;;;;21.30;20.20;;;20.70;99.90;;;;;;4925965;29;20466;-80
2023/08/26 05:54:15;;;;;;;21.07;19.97;;;20.90;99.90;;;;;;4924560;29;20459;-80
2023/08/26 05:56:42;;;;;;;21.17;19.07;;;21.00;99.90;;;;;;4926182;29;20462;-79
2023/08/26 05:59:10;;;;;;;19.90;18.73;;;21.10;99.90;;;;;;4928666;29;20490;-80
2023/08/26 06:01:37;;;;;;;20.10;19.00;;;21.50;99.90;;;;;;4926360;29;20472;-79
2023/08/26 06:04:04;;;;;;;19.90;18.60;;;21.80;99.90;;;;;;4925699;29;20473;-80
2023/08/26 06:06:31;;;;;;;17.57;16.67;;;22.00;99.90;;;;;;4930436;29;20464;-80
2023/08/26 06:08:58;;;;;;;17.77;16.67;;;22.50;99.90;;;;;;4922003;29;20501;-80
2023/08/26 06:11:24;;;;;;;18.20;17.20;;;23.00;99.90;;;;;;4925594;29;20453;-82
2023/08/26 06:13:51;;;;;;;18.43;17.30;;;23.70;99.90;;;;;;4927181;29;20457;-82
2023/08/26 06:16:20;;;;;;;18.97;17.67;;;24.40;99.90;;;;;;4927370;29;20468;-77
2023/08/26 06:18:47;;;;;;;18.20;17.10;;;25.00;99.90;;;;;;4922398;29;20569;-80
2023/08/26 06:21:14;;;;;;;16.43;15.73;;;25.50;99.90;;;;;;4917075;29;20457;-74
2023/08/26 06:23:41;;;;;;;16.57;15.77;;;25.70;99.90;;;;;;4924234;29;20512;-73
2023/08/26 06:26:07;;;;;;;16.80;16.07;;;25.60;99.90;;;;;;4935680;29;20450;-75
2023/08/26 06:28:34;;;;;;;17.30;16.10;;;25.70;99.90;;;;;;4935562;29;20512;-74
2023/08/26 06:31:02;;;;;;;17.07;16.10;;;25.90;99.90;;;;;;4927325;29;20489;-75
2023/08/26 06:33:30;;;;;;;16.73;15.83;;;26.40;99.90;;;;;;4916764;29;20949;-74
2023/08/26 06:35:57;;;;;;;17.00;16.10;;;26.80;99.90;;;;;;4916792;29;20454;-75
2023/08/26 06:38:24;;;;;;;16.93;15.87;;;27.10;99.90;;;;;;4922898;29;20488;-74
2023/08/26 06:40:54;;;;;;;17.83;16.53;;;26.70;99.90;;;;;;4925054;29;20466;-73
2023/08/26 06:43:21;;;;;;;17.23;16.33;;;26.20;99.90;;;;;;4924959;29;20553;-73
2023/08/26 06:45:48;;;;;;;17.73;16.50;;;26.20;99.90;;;;;;4922425;29;20945;-74
2023/08/26 06:48:15;;;;;;;16.97;16.03;;;26.20;99.90;;;;;;4926800;29;20525;-74
2023/08/26 06:50:47;;;;;;;16.97;16.10;;;26.20;99.90;;;;;;4927217;29;20461;-74
2023/08/26 06:53:20;;;;;;;16.23;15.50;;;26.50;99.90;;;;;;4926928;29;20461;-74
2023/08/26 06:55:47;;;;;;;16.57;15.77;;;26.60;99.90;;;;;;4918570;29;21020;-73
2023/08/26 06:58:14;;;;;;;16.53;15.50;;;27.40;99.90;;;;;;4927149;29;20451;-71
2023/08/26 07:00:41;;;;;;;15.93;15.23;;;27.90;99.90;;;;;;4923744;29;20831;-70
2023/08/26 07:03:08;;;;;;;16.60;15.70;;;27.70;99.90;;;;;;4924923;29;20490;-73
2023/08/26 07:05:35;;;;;;;16.60;15.60;;;27.20;99.90;;;;;;4918931;29;20553;-73
2023/08/26 07:08:03;;;;;;;17.23;16.03;;;26.90;99.90;;;;;;4925724;29;20494;-73
2023/08/26 07:10:30;;;;;;;16.50;15.70;;;26.70;99.90;;;;;;4924312;29;20462;-73
2023/08/26 07:12:57;;;;;;;17.97;16.97;;;26.50;99.90;;;;;;4922178;29;20467;-73
2023/08/26 07:15:24;;;;;;;18.03;16.90;;;26.40;99.90;;;;;;4926713;29;20505;-72
2023/08/26 07:17:50;;;;;;;18.30;16.93;;;25.90;99.90;;;;;;4927940;29;20478;-72
2023/08/26 07:20:17;;;;;;;18.77;17.50;;;25.40;99.90;;;;;;4934674;29;20460;-72
2023/08/26 07:22:44;;;;;;;18.83;17.83;;;25.20;99.90;;;;;;4933214;29;20863;-72
2023/08/26 07:25:12;;;;;;;18.70;17.60;;;24.90;99.90;;;;;;4915789;29;20510;-73
2023/08/26 07:27:40;;;;;;;18.80;17.60;;;24.80;99.90;;;;;;4915300;29;20457;-74
2023/08/26 07:30:08;;;;;;;18.00;17.00;;;24.60;99.90;;;;;;4915123;29;20497;-74
2023/08/26 07:32:34;;;;;;;17.60;16.40;;;24.90;99.90;;;;;;4915174;29;20961;-74
2023/08/26 07:35:01;;;;;;;16.70;16.00;;;24.80;99.90;;;;;;4915394;29;20451;-74
2023/08/26 07:37:29;;;;;;;15.90;15.30;;;25.30;99.90;;;;;;4915541;29;20458;-74
2023/08/26 07:39:56;;;;;;;17.53;16.47;;;25.80;99.90;;;;;;4920860;29;20453;-74
2023/08/26 07:42:24;;;;;;;16.97;15.70;;;25.80;99.90;;;;;;4927338;29;20453;-75
2023/08/26 07:44:51;;;;;;;16.57;15.67;;;26.30;99.90;;;;;;4915803;29;20961;-74
2023/08/26 07:47:18;;;;;;;16.30;15.50;;;26.80;99.90;;;;;;4932466;29;20454;-74
2023/08/26 07:49:44;;;;;;;16.10;15.17;;;26.90;99.90;;;;;;4934101;29;20489;-74
2023/08/26 07:52:11;;;;;;;16.63;15.73;;;26.70;99.90;;;;;;4933977;29;20453;-74
2023/08/26 07:54:38;;;;;;;17.20;16.30;;;26.50;99.90;;;;;;4932827;29;20449;-74
2023/08/26 07:57:05;;;;;;;16.23;14.90;;;26.40;99.90;;;;;;4914420;29;20450;-74
2023/08/26 07:59:34;;;;;;;15.93;15.23;;;26.10;99.90;;;;;;4914418;29;20938;-74
2023/08/26 08:02:00;;;;;;;16.90;16.03;;;25.80;99.90;;;;;;4914418;29;20533;-74
2023/08/26 08:04:27;;;;;;;17.20;15.77;;;25.70;99.90;;;;;;4914725;29;20458;-74
2023/08/26 08:06:54;;;;;;;16.13;15.20;;;25.60;99.90;;;;;;4914422;29;20450;-73
2023/08/26 08:09:20;;;;;;;16.87;15.97;;;25.60;99.90;;;;;;4914431;29;20882;-75
2023/08/26 08:11:47;;;;;;;16.07;15.27;;;25.80;99.90;;;;;;4914400;29;20442;-74
2023/08/26 08:14:14;;;;;;;15.10;14.33;;;25.90;99.90;;;;;;4914748;29;20465;-75
2023/08/26 08:16:42;;;;;;;16.17;15.37;;;25.70;99.90;;;;;;4914554;29;20474;-74
2023/08/26 08:19:08;;;;;;;15.90;14.93;;;25.50;99.90;;;;;;4914576;29;20806;-75
2023/08/26 08:21:35;;;;;;;15.80;15.07;;;25.20;99.90;;;;;;4914486;29;20492;-74
2023/08/26 08:24:02;;;;;;;16.10;15.20;;;24.80;99.90;;;;;;4914577;29;20459;-74
2023/08/26 08:26:32;;;;;;;16.67;15.70;;;24.80;99.90;;;;;;4914470;29;20742;-74
2023/08/26 08:28:59;;;;;;;16.17;15.47;;;24.60;99.90;;;;;;4923710;29;21079;-74
2023/08/26 08:31:25;;;;;;;16.73;15.60;;;24.60;99.90;;;;;;4924185;29;20485;-74
2023/08/26 08:33:54;;;;;;;16.07;15.13;;;24.80;99.90;;;;;;4932618;29;20974;-74
2023/08/26 08:36:21;;;;;;;16.83;15.53;;;24.80;99.90;;;;;;4918738;29;20708;-74
2023/08/26 08:38:48;;;;;;;16.00;15.20;;;24.90;99.90;;;;;;4914044;29;20454;-74
2023/08/26 08:41:15;;;;;;;16.20;15.30;;;24.70;99.90;;;;;;4914171;29;20461;-74
2023/08/26 08:43:46;;;;;;;15.80;14.90;;;24.60;99.90;;;;;;4923010;29;20480;-75
2023/08/26 08:46:14;;;;;;;17.13;16.33;;;24.70;99.90;;;;;;4933194;29;20459;-75
2023/08/26 08:48:42;;;;;;;15.67;14.77;;;24.90;99.90;;;;;;4932907;29;20493;-75
2023/08/26 08:51:12;;;;;;;15.13;14.43;;;24.90;99.90;;;;;;4932948;29;20457;-76
2023/08/26 08:53:45;;;;;;;16.70;15.40;;;25.10;99.90;;;;;;4933004;29;20873;-75
2023/08/26 08:56:15;;;;;;;15.27;14.43;;;25.50;99.90;;;;;;4933429;29;20477;-74
2023/08/26 08:58:43;;;;;;;15.30;14.50;;;26.00;99.90;;;;;;4933147;29;20451;-74
2023/08/26 09:01:10;;;;;;;15.53;14.60;;;26.40;99.90;;;;;;4933059;29;20556;-74
2023/08/26 09:03:37;;;;;;;14.67;13.67;;;26.70;99.90;;;;;;4933069;29;20450;-75
2023/08/26 09:06:05;;;;;;;15.10;14.20;;;27.00;99.90;;;;;;4933084;29;20457;-75
2023/08/26 09:08:33;;;;;;;15.70;14.70;;;27.00;99.90;;;;;;4933016;29;20490;-75
2023/08/26 09:10:59;;;;;;;15.80;14.70;;;27.10;99.90;;;;;;4933183;29;20968;-75
2023/08/26 09:13:26;;;;;;;15.93;14.90;;;27.00;99.90;;;;;;4933153;29;20453;-75
2023/08/26 09:15:53;;;;;;;16.27;15.40;;;27.00;99.90;;;;;;4932110;29;20499;-75
2023/08/26 09:18:20;;;;;;;16.40;15.40;;;27.00;99.90;;;;;;4932791;29;20481;-75
2023/08/26 09:20:47;;;;;;;15.43;14.43;;;26.90;99.90;;;;;;4932989;29;20454;-75
2023/08/26 09:23:14;;;;;;;15.93;15.07;;;26.60;99.90;;;;;;4933129;29;20477;-75
2023/08/26 09:25:52;;;;;;;15.77;14.77;;;26.90;99.90;;;;;;4932848;29;20874;-73
2023/08/26 09:28:19;;;;;;;15.20;14.40;;;26.70;99.90;;;;;;4932829;29;20449;-73
2023/08/26 09:31:02;;;;;;;14.90;14.20;;;26.70;99.90;;;;;;4932722;29;20828;-72
2023/08/26 09:33:29;;;;;;;15.37;14.57;;;27.00;99.90;;;;;;4928806;29;20524;-72
2023/08/26 09:35:55;;;;;;;15.43;14.70;;;27.00;99.90;;;;;;4932298;29;20477;-72
2023/08/26 09:38:22;;;;;;;15.07;14.30;;;26.90;99.90;;;;;;4932224;29;20446;-72
2023/08/26 09:40:50;;;;;;;16.03;14.83;;;26.80;99.90;;;;;;4930417;29;20457;-73
2023/08/26 09:43:17;;;;;;;16.03;15.03;;;26.80;99.90;;;;;;4932048;29;20464;-72
2023/08/26 09:45:44;;;;;;;15.47;14.57;;;26.80;99.90;;;;;;4932287;29;20445;-72
2023/08/26 09:48:21;;;;;;;15.27;14.37;;;26.50;99.90;;;;;;4934627;29;20441;-72
2023/08/26 09:50:48;;;;;;;14.50;13.63;;;26.50;99.90;;;;;;4933349;29;20433;-72
2023/08/26 09:53:31;;;;;;;16.57;15.57;;;26.90;99.90;;;;;;4935780;29;20441;-73
2023/08/26 09:56:00;;;;;;;15.23;14.23;;;26.80;99.90;;;;;;4935030;29;20512;-72
2023/08/26 09:58:27;;;;;;;15.30;14.40;;;27.00;99.90;;;;;;4933224;29;20444;-73
2023/08/26 10:00:54;;;;;;;15.57;14.80;;;26.90;99.90;;;;;;4935554;29;20541;-72
2023/08/26 10:03:24;;;;;;;15.57;14.63;;;26.50;99.90;;;;;;4935414;29;20805;-73
2023/08/26 10:05:54;;;;;;;15.13;14.43;;;26.60;99.90;;;;;;4935444;29;20788;-72
2023/08/26 10:08:27;;;;;;;15.23;14.23;;;26.60;99.90;;;;;;4935362;29;20814;-73
2023/08/26 10:10:55;;;;;;;16.00;15.00;;;26.70;99.90;;;;;;4935184;29;20959;-73
2023/08/26 10:13:28;;;;;;;15.73;14.40;;;26.70;99.90;;;;;;4935149;29;20442;-72
2023/08/26 10:15:59;;;;;;;16.03;15.13;;;26.80;99.90;;;;;;4935379;29;20533;-73
2023/08/26 10:18:33;;;;;;;16.50;15.50;;;26.90;99.90;;;;;;4932917;29;20465;-72
2023/08/26 10:21:02;;;;;;;16.60;15.80;;;26.50;99.90;;;;;;4935212;29;20975;-72
2023/08/26 10:23:30;;;;;;;16.07;15.27;;;26.60;99.90;;;;;;4935216;29;20528;-72
2023/08/26 10:25:57;;;;;;;16.93;16.07;;;26.40;99.90;;;;;;4935085;29;20959;-73
2023/08/26 10:28:26;;;;;;;16.40;15.40;;;26.10;99.90;;;;;;4934950;29;20449;-73
2023/08/26 10:30:54;;;;;;;16.70;15.90;;;25.60;99.90;;;;;;4934735;29;20575;-73
2023/08/26 10:33:21;;;;;;;17.63;16.47;;;25.10;99.90;;;;;;4934900;29;20454;-73
2023/08/26 10:35:59;;;;;;;15.97;15.00;;;24.80;99.90;;;;;;4934920;29;20438;-71
2023/08/26 10:38:26;;;;;;;16.50;15.60;;;24.60;99.90;;;;;;4932581;29;20513;-71
2023/08/26 10:41:08;;;;;;;16.00;15.10;;;24.50;99.90;;;;;;4934807;29;20433;-70
2023/08/26 10:43:37;;;;;;;15.90;14.87;;;24.50;99.90;;;;;;4931326;29;20494;-70
2023/08/26 10:46:03;;;;;;;16.10;14.93;;;24.60;99.90;;;;;;4934559;29;20463;-72
2023/08/26 10:48:30;;;;;;;15.93;15.23;;;24.60;99.90;;;;;;4935297;29;20472;-74
2023/08/26 10:51:00;;;;;;;16.40;14.80;;;24.70;99.90;;;;;;4930300;29;20485;-70
2023/08/26 10:53:27;;;;;;;15.37;14.57;;;24.60;99.90;;;;;;4918913;29;20477;-71
2023/08/26 10:56:11;;;;;;;15.93;14.97;;;24.50;99.90;;;;;;4923656;29;20454;-73
2023/08/26 10:58:45;;;;;;;14.50;13.87;;;24.40;99.90;;;;;;4925756;29;20462;-71
2023/08/26 11:01:12;;;;;;;16.60;15.53;;;24.20;99.90;;;;;;4924532;29;20476;-72
2023/08/26 11:03:39;;;;;;;15.57;14.77;;;24.20;99.90;;;;;;4921057;29;20520;-73
2023/08/26 11:06:08;;;;;;;16.07;14.83;;;24.10;99.90;;;;;;4928784;29;20457;-73
2023/08/26 11:08:37;;;;;;;15.40;14.80;;;23.90;99.90;;;;;;4919154;29;20475;-73
2023/08/26 11:11:04;;;;;;;15.47;14.57;;;23.70;99.90;;;;;;4927731;29;20486;-73
2023/08/26 11:13:32;;;;;;;15.33;14.63;;;23.80;99.90;;;;;;4929630;29;20450;-73
2023/08/26 11:16:00;;;;;;;15.77;14.73;;;24.20;99.90;;;;;;4928082;29;20536;-73
2023/08/26 11:18:27;;;;;;;15.27;14.47;;;24.60;99.90;;;;;;4920849;29;20986;-73
2023/08/26 11:20:54;;;;;;;14.50;13.70;;;24.90;99.90;;;;;;4934643;29;20449;-74
2023/08/26 11:23:25;;;;;;;16.27;15.27;;;25.30;99.90;;;;;;4925482;29;20450;-73
2023/08/26 11:25:51;;;;;;;14.83;14.10;;;25.90;99.90;;;;;;4915528;29;20478;-73
2023/08/26 11:28:18;;;;;;;15.47;14.60;;;26.20;99.90;;;;;;4915329;29;20454;-73
2023/08/26 11:30:46;;;;;;;15.10;14.20;;;26.20;99.90;;;;;;4915359;29;20498;-73
2023/08/26 11:33:20;;;;;;;15.00;14.20;;;26.20;99.90;;;;;;4915602;29;20450;-74
2023/08/26 11:35:48;;;;;;;15.90;14.90;;;26.20;99.90;;;;;;4915375;29;20458;-73
2023/08/26 11:38:16;;;;;;;15.10;14.20;;;26.20;99.90;;;;;;4916305;29;20458;-73
2023/08/26 11:40:45;;;;;;;15.07;14.27;;;25.80;99.90;;;;;;4930799;29;20460;-73
2023/08/26 11:43:13;;;;;;;14.13;13.43;;;25.60;99.90;;;;;;4933548;29;20537;-73
2023/08/26 11:45:42;;;;;;;15.27;14.47;;;25.40;99.90;;;;;;4933537;29;20472;-74
2023/08/26 11:48:10;;;;;;;15.43;14.30;;;25.40;99.90;;;;;;4933356;29;20521;-74
2023/08/26 11:50:39;;;;;;;14.43;13.83;;;25.40;99.90;;;;;;4933481;29;20482;-74
2023/08/26 11:53:06;;;;;;;15.10;14.30;;;25.50;99.90;;;;;;4933496;29;20452;-74
2023/08/26 11:55:33;;;;;;;16.30;15.00;;;25.20;99.90;;;;;;4933232;29;20442;-73
2023/08/26 11:58:01;;;;;;;15.80;14.73;;;24.80;99.90;;;;;;4933405;29;20441;-73
2023/08/26 12:00:28;;;;;;;16.00;14.37;;;24.50;99.90;;;;;;4932654;29;20441;-73
2023/08/26 12:03:00;;;;;;;19.20;17.83;;;24.40;99.90;;;;;;4932614;29;20449;-73
2023/08/26 12:05:27;;;;;;;17.37;16.13;;;24.20;99.90;;;;;;4933320;29;20928;-73
2023/08/26 12:07:56;;;;;;;15.90;14.80;;;23.90;99.90;;;;;;4928379;29;20464;-73
2023/08/26 12:10:24;;;;;;;16.40;15.40;;;23.70;99.90;;;;;;4932771;29;20517;-73
2023/08/26 12:13:03;;;;;;;16.10;15.07;;;23.50;99.90;;;;;;4933030;29;20452;-73
2023/08/26 12:15:30;;;;;;;16.00;14.67;;;23.40;99.90;;;;;;4933274;29;20442;-73
2023/08/26 12:18:00;;;;;;;24.40;23.10;;;23.40;99.90;;;;;;4933002;29;20568;-73
2023/08/26 12:20:28;;;;;;;35.10;33.20;;;23.40;99.90;;;;;;4931517;29;20464;-73
2023/08/26 12:22:57;;;;;;;37.50;35.50;;;22.90;99.90;;;;;;4930576;29;20464;-73
2023/08/26 12:25:30;;;;;;;39.00;36.73;;;22.50;99.90;;;;;;4932849;29;20452;-74
2023/08/26 12:28:05;;;;;;;40.60;37.93;;;22.20;99.90;;;;;;4930946;29;20481;-74
2023/08/26 12:30:31;;;;;;;38.63;36.63;;;21.90;99.90;;;;;;4932530;29;20488;-74